sensor_id;sensor_type;location;lat;lon;timestamp;pressure;altitude;pressure_sealevel;temperature;humidity
61026;BME280;46911;32.650;-16.902;2023-10-19T00:01:22;101091.13;;;23.33;64.70
61026;BME280;46911;32.650;-16.902;2023-10-19T00:03:30;101088.78;;;23.30;63.97
61026;BME280;46911;32.650;-16.902;2023-10-19T00:05:33;101082.97;;;23.33;63.01
61026;BME280;46911;32.650;-16.902;2023-10-19T00:07:34;101081.13;;;23.33;62.66
61026;BME280;46911;32.650;-16.902;2023-10-19T00:09:41;101075.66;;;23.33;62.35
61026;BME280;46911;32.650;-16.902;2023-10-19T00:11:46;101065.94;;;23.39;61.43
61026;BME280;46911;32.650;-16.902;2023-10-19T00:13:51;101077.00;;;23.37;61.73
61026;BME280;46911;32.650;-16.902;2023-10-19T00:16:00;101070.69;;;23.37;61.92
61026;BME280;46911;32.650;-16.902;2023-10-19T00:18:01;101063.91;;;23.33;62.14
61026;BME280;46911;32.650;-16.902;2023-10-19T00:20:30;101060.91;;;23.28;62.18
61026;BME280;46911;32.650;-16.902;2023-10-19T00:22:36;101065.44;;;23.35;62.51
61026;BME280;46911;32.650;-16.902;2023-10-19T00:24:37;101052.56;;;23.29;62.47
61026;BME280;46911;32.650;-16.902;2023-10-19T00:26:43;101053.78;;;23.27;62.82
61026;BME280;46911;32.650;-16.902;2023-10-19T00:28:45;101055.81;;;23.24;63.08
61026;BME280;46911;32.650;-16.902;2023-10-19T00:30:47;101057.13;;;23.29;63.24
61026;BME280;46911;32.650;-16.902;2023-10-19T00:32:52;101048.50;;;23.25;62.91
61026;BME280;46911;32.650;-16.902;2023-10-19T00:34:55;101054.59;;;23.27;62.58
61026;BME280;46911;32.650;-16.902;2023-10-19T00:36:56;101054.91;;;23.32;62.86
61026;BME280;46911;32.650;-16.902;2023-10-19T00:38:59;101056.13;;;23.30;62.55
61026;BME280;46911;32.650;-16.902;2023-10-19T00:41:07;101050.03;;;23.28;62.78
61026;BME280;46911;32.650;-16.902;2023-10-19T00:43:12;101052.19;;;23.32;61.84
61026;BME280;46911;32.650;-16.902;2023-10-19T00:45:17;101045.41;;;23.28;62.66
61026;BME280;46911;32.650;-16.902;2023-10-19T00:47:25;101038.66;;;23.24;62.79
61026;BME280;46911;32.650;-16.902;2023-10-19T00:49:31;101056.50;;;23.27;63.17
61026;BME280;46911;32.650;-16.902;2023-10-19T00:51:51;101044.44;;;23.21;63.30
61026;BME280;46911;32.650;-16.902;2023-10-19T00:53:57;101040.38;;;23.17;63.44
61026;BME280;46911;32.650;-16.902;2023-10-19T00:56:03;101041.19;;;23.26;63.28
61026;BME280;46911;32.650;-16.902;2023-10-19T00:58:06;101039.84;;;23.21;63.52
61026;BME280;46911;32.650;-16.902;2023-10-19T01:00:10;101036.41;;;23.28;63.61
61026;BME280;46911;32.650;-16.902;2023-10-19T01:02:24;101030.16;;;23.19;64.30
61026;BME280;46911;32.650;-16.902;2023-10-19T01:04:28;101027.25;;;23.20;64.49
61026;BME280;46911;32.650;-16.902;2023-10-19T01:06:33;101023.91;;;23.18;64.93
61026;BME280;46911;32.650;-16.902;2023-10-19T01:08:35;101014.22;;;23.16;65.06
61026;BME280;46911;32.650;-16.902;2023-10-19T01:10:42;101030.28;;;23.26;65.24
61026;BME280;46911;32.650;-16.902;2023-10-19T01:12:50;101014.22;;;23.16;65.98
61026;BME280;46911;32.650;-16.902;2023-10-19T01:15:10;101024.03;;;23.17;66.01
61026;BME280;46911;32.650;-16.902;2023-10-19T01:17:17;101025.75;;;23.18;65.96
61026;BME280;46911;32.650;-16.902;2023-10-19T01:19:20;101025.38;;;23.21;65.45
61026;BME280;46911;32.650;-16.902;2023-10-19T01:21:24;101022.66;;;23.21;65.83
61026;BME280;46911;32.650;-16.902;2023-10-19T01:23:38;101009.78;;;23.15;65.86
61026;BME280;46911;32.650;-16.902;2023-10-19T01:25:47;101029.66;;;23.15;65.58
61026;BME280;46911;32.650;-16.902;2023-10-19T01:27:57;101011.47;;;23.07;65.90
61026;BME280;46911;32.650;-16.902;2023-10-19T01:29:58;100987.78;;;22.93;65.67
61026;BME280;46911;32.650;-16.902;2023-10-19T01:32:04;101009.50;;;23.01;66.05
61026;BME280;46911;32.650;-16.902;2023-10-19T01:34:17;101014.88;;;23.10;66.21
61026;BME280;46911;32.650;-16.902;2023-10-19T01:36:20;101016.94;;;23.07;65.57
61026;BME280;46911;32.650;-16.902;2023-10-19T01:38:27;101001.22;;;22.95;66.10
61026;BME280;46911;32.650;-16.902;2023-10-19T01:40:31;101000.19;;;22.96;66.64
61026;BME280;46911;32.650;-16.902;2023-10-19T01:42:32;101001.72;;;22.98;66.92
61026;BME280;46911;32.650;-16.902;2023-10-19T01:44:33;101009.06;;;23.13;67.13
61026;BME280;46911;32.650;-16.902;2023-10-19T01:46:39;101008.25;;;23.12;67.75
61026;BME280;46911;32.650;-16.902;2023-10-19T01:48:44;101002.31;;;23.08;68.58
61026;BME280;46911;32.650;-16.902;2023-10-19T01:50:45;101003.03;;;23.02;69.51
61026;BME280;46911;32.650;-16.902;2023-10-19T01:52:51;100988.63;;;22.94;69.45
61026;BME280;46911;32.650;-16.902;2023-10-19T01:54:52;100997.22;;;23.05;69.39
61026;BME280;46911;32.650;-16.902;2023-10-19T01:57:04;101005.06;;;23.00;69.52
61026;BME280;46911;32.650;-16.902;2023-10-19T01:59:09;101000.66;;;22.99;69.54
61026;BME280;46911;32.650;-16.902;2023-10-19T02:01:10;100993.00;;;23.03;69.37
61026;BME280;46911;32.650;-16.902;2023-10-19T02:03:14;100998.63;;;23.01;69.28
61026;BME280;46911;32.650;-16.902;2023-10-19T02:05:18;100989.13;;;22.97;69.51
61026;BME280;46911;32.650;-16.902;2023-10-19T02:07:21;100967.38;;;22.97;70.03
61026;BME280;46911;32.650;-16.902;2023-10-19T02:09:23;100976.84;;;23.01;69.67
61026;BME280;46911;32.650;-16.902;2023-10-19T02:11:29;100974.00;;;22.95;69.79
61026;BME280;46911;32.650;-16.902;2023-10-19T02:13:32;100988.22;;;23.05;69.56
61026;BME280;46911;32.650;-16.902;2023-10-19T02:15:34;100975.09;;;23.08;69.76
61026;BME280;46911;32.650;-16.902;2023-10-19T02:17:40;100968.69;;;23.01;69.87
61026;BME280;46911;32.650;-16.902;2023-10-19T02:19:44;100961.84;;;23.05;69.97
61026;BME280;46911;32.650;-16.902;2023-10-19T02:22:03;100956.22;;;23.07;69.81
61026;BME280;46911;32.650;-16.902;2023-10-19T02:24:10;100957.06;;;23.07;69.93
61026;BME280;46911;32.650;-16.902;2023-10-19T02:26:17;100957.94;;;23.08;70.01
61026;BME280;46911;32.650;-16.902;2023-10-19T02:28:21;100961.84;;;23.05;70.49
61026;BME280;46911;32.650;-16.902;2023-10-19T02:30:29;100943.34;;;23.01;70.59
61026;BME280;46911;32.650;-16.902;2023-10-19T02:32:34;100940.63;;;23.01;70.70
61026;BME280;46911;32.650;-16.902;2023-10-19T02:34:40;100942.88;;;22.97;70.57
61026;BME280;46911;32.650;-16.902;2023-10-19T02:36:43;100944.09;;;22.95;70.58
61026;BME280;46911;32.650;-16.902;2023-10-19T02:38:49;100927.81;;;22.86;70.63
61026;BME280;46911;32.650;-16.902;2023-10-19T02:40:56;100936.44;;;22.90;70.27
61026;BME280;46911;32.650;-16.902;2023-10-19T02:43:00;100933.84;;;22.97;69.67
61026;BME280;46911;32.650;-16.902;2023-10-19T02:45:07;100919.09;;;22.91;69.50
61026;BME280;46911;32.650;-16.902;2023-10-19T02:47:10;100915.00;;;22.95;69.91
61026;BME280;46911;32.650;-16.902;2023-10-19T02:49:14;100920.56;;;23.02;69.82
61026;BME280;46911;32.650;-16.902;2023-10-19T02:51:18;100920.19;;;23.13;70.02
61026;BME280;46911;32.650;-16.902;2023-10-19T02:53:23;100908.09;;;23.16;70.09
61026;BME280;46911;32.650;-16.902;2023-10-19T02:55:24;100917.31;;;23.30;70.09
61026;BME280;46911;32.650;-16.902;2023-10-19T02:57:28;100923.81;;;23.44;69.84
61026;BME280;46911;32.650;-16.902;2023-10-19T02:59:31;100921.75;;;23.46;70.46
61026;BME280;46911;32.650;-16.902;2023-10-19T03:01:35;100928.53;;;23.50;70.94
61026;BME280;46911;32.650;-16.902;2023-10-19T03:03:36;100930.22;;;23.51;71.48
61026;BME280;46911;32.650;-16.902;2023-10-19T03:05:37;100928.22;;;23.45;72.96
61026;BME280;46911;32.650;-16.902;2023-10-19T03:07:41;100932.34;;;23.40;72.94
61026;BME280;46911;32.650;-16.902;2023-10-19T03:09:46;100932.53;;;23.39;73.16
61026;BME280;46911;32.650;-16.902;2023-10-19T03:11:57;100925.78;;;23.35;73.83
61026;BME280;46911;32.650;-16.902;2023-10-19T03:14:05;100923.69;;;23.37;74.63
61026;BME280;46911;32.650;-16.902;2023-10-19T03:16:08;100923.25;;;23.33;75.13
61026;BME280;46911;32.650;-16.902;2023-10-19T03:18:08;100924.06;;;23.34;75.27
61026;BME280;46911;32.650;-16.902;2023-10-19T03:20:10;100922.25;;;23.26;75.90
61026;BME280;46911;32.650;-16.902;2023-10-19T03:22:11;100908.00;;;23.24;75.83
61026;BME280;46911;32.650;-16.902;2023-10-19T03:24:12;100903.41;;;23.24;76.03
61026;BME280;46911;32.650;-16.902;2023-10-19T03:26:16;100899.53;;;23.19;76.16
61026;BME280;46911;32.650;-16.902;2023-10-19T03:28:28;100898.59;;;23.03;76.20
61026;BME280;46911;32.650;-16.902;2023-10-19T03:30:38;100898.78;;;23.02;76.31
61026;BME280;46911;32.650;-16.902;2023-10-19T03:32:47;100888.16;;;22.92;76.05
61026;BME280;46911;32.650;-16.902;2023-10-19T03:34:50;100893.53;;;23.00;74.88
61026;BME280;46911;32.650;-16.902;2023-10-19T03:36:56;100891.91;;;22.91;74.18
61026;BME280;46911;32.650;-16.902;2023-10-19T03:38:57;100888.28;;;22.99;73.76
61026;BME280;46911;32.650;-16.902;2023-10-19T03:41:13;100892.59;;;23.16;73.41
61026;BME280;46911;32.650;-16.902;2023-10-19T03:43:14;100884.91;;;23.20;73.31
61026;BME280;46911;32.650;-16.902;2023-10-19T03:45:22;100877.22;;;23.23;73.34
61026;BME280;46911;32.650;-16.902;2023-10-19T03:47:25;100887.66;;;23.35;73.26
61026;BME280;46911;32.650;-16.902;2023-10-19T03:49:40;100871.59;;;23.25;73.43
61026;BME280;46911;32.650;-16.902;2023-10-19T03:51:41;100872.94;;;23.29;72.96
61026;BME280;46911;32.650;-16.902;2023-10-19T03:53:58;100854.69;;;23.15;73.13
61026;BME280;46911;32.650;-16.902;2023-10-19T03:56:04;100854.06;;;23.04;72.99
61026;BME280;46911;32.650;-16.902;2023-10-19T03:58:13;100857.44;;;23.06;72.95
61026;BME280;46911;32.650;-16.902;2023-10-19T04:00:14;100851.72;;;23.01;72.19
61026;BME280;46911;32.650;-16.902;2023-10-19T04:02:19;100853.00;;;22.90;72.23
61026;BME280;46911;32.650;-16.902;2023-10-19T04:04:36;100845.28;;;22.94;70.99
61026;BME280;46911;32.650;-16.902;2023-10-19T04:06:39;100853.03;;;23.05;71.02
61026;BME280;46911;32.650;-16.902;2023-10-19T04:08:43;100856.06;;;23.11;71.20
61026;BME280;46911;32.650;-16.902;2023-10-19T04:10:51;100841.28;;;23.13;71.18
61026;BME280;46911;32.650;-16.902;2023-10-19T04:13:21;100852.06;;;23.21;71.08
61026;BME280;46911;32.650;-16.902;2023-10-19T04:15:21;100861.38;;;23.27;71.30
61026;BME280;46911;32.650;-16.902;2023-10-19T04:17:23;100859.78;;;23.33;70.99
61026;BME280;46911;32.650;-16.902;2023-10-19T04:19:31;100848.25;;;23.31;71.07
61026;BME280;46911;32.650;-16.902;2023-10-19T04:21:32;100853.97;;;23.36;70.73
61026;BME280;46911;32.650;-16.902;2023-10-19T04:23:36;100852.28;;;23.35;70.93
61026;BME280;46911;32.650;-16.902;2023-10-19T04:25:40;100845.72;;;23.29;70.99
61026;BME280;46911;32.650;-16.902;2023-10-19T04:27:43;100831.81;;;23.24;71.20
61026;BME280;46911;32.650;-16.902;2023-10-19T04:29:48;100835.94;;;23.20;72.25
61026;BME280;46911;32.650;-16.902;2023-10-19T04:31:54;100845.41;;;23.24;73.06
61026;BME280;46911;32.650;-16.902;2023-10-19T04:33:55;100844.56;;;23.23;72.88
61026;BME280;46911;32.650;-16.902;2023-10-19T04:35:58;100850.66;;;23.26;73.14
61026;BME280;46911;32.650;-16.902;2023-10-19T04:38:04;100843.19;;;23.28;73.07
61026;BME280;46911;32.650;-16.902;2023-10-19T04:40:11;100837.94;;;23.41;72.78
61026;BME280;46911;32.650;-16.902;2023-10-19T04:42:17;100813.25;;;23.28;72.87
61026;BME280;46911;32.650;-16.902;2023-10-19T04:44:20;100833.97;;;23.44;74.12
61026;BME280;46911;32.650;-16.902;2023-10-19T04:46:21;100844.97;;;23.50;74.06
61026;BME280;46911;32.650;-16.902;2023-10-19T04:48:23;100830.91;;;23.47;73.91
61026;BME280;46911;32.650;-16.902;2023-10-19T04:50:24;100838.50;;;23.51;73.79
61026;BME280;46911;32.650;-16.902;2023-10-19T04:52:24;100824.97;;;23.43;74.12
61026;BME280;46911;32.650;-16.902;2023-10-19T04:54:25;100839.25;;;23.45;74.59
61026;BME280;46911;32.650;-16.902;2023-10-19T04:56:27;100828.53;;;23.44;74.76
61026;BME280;46911;32.650;-16.902;2023-10-19T04:58:29;100820.09;;;23.38;74.53
61026;BME280;46911;32.650;-16.902;2023-10-19T05:00:35;100818.22;;;23.39;74.76
61026;BME280;46911;32.650;-16.902;2023-10-19T05:02:41;100826.28;;;23.47;75.25
61026;BME280;46911;32.650;-16.902;2023-10-19T05:04:44;100830.31;;;23.51;76.19
61026;BME280;46911;32.650;-16.902;2023-10-19T05:06:51;100827.97;;;23.48;76.59
61026;BME280;46911;32.650;-16.902;2023-10-19T05:08:52;100819.00;;;23.48;77.83
61026;BME280;46911;32.650;-16.902;2023-10-19T05:10:54;100818.94;;;23.33;79.23
61026;BME280;46911;32.650;-16.902;2023-10-19T05:12:55;100814.16;;;23.20;80.05
61026;BME280;46911;32.650;-16.902;2023-10-19T05:14:58;100810.81;;;23.10;80.14
61026;BME280;46911;32.650;-16.902;2023-10-19T05:16:59;100806.09;;;23.03;80.53
61026;BME280;46911;32.650;-16.902;2023-10-19T05:19:00;100810.03;;;23.01;81.17
61026;BME280;46911;32.650;-16.902;2023-10-19T05:21:04;100801.97;;;22.93;81.26
61026;BME280;46911;32.650;-16.902;2023-10-19T05:23:08;100793.34;;;22.89;81.29
61026;BME280;46911;32.650;-16.902;2023-10-19T05:25:15;100807.06;;;22.96;80.90
61026;BME280;46911;32.650;-16.902;2023-10-19T05:27:19;100804.59;;;23.01;81.15
61026;BME280;46911;32.650;-16.902;2023-10-19T05:29:27;100817.47;;;23.07;80.94
61026;BME280;46911;32.650;-16.902;2023-10-19T05:31:31;100814.56;;;23.08;81.04
61026;BME280;46911;32.650;-16.902;2023-10-19T05:33:32;100822.09;;;23.06;81.90
61026;BME280;46911;32.650;-16.902;2023-10-19T05:35:36;100819.19;;;23.08;82.22
61026;BME280;46911;32.650;-16.902;2023-10-19T05:37:41;100822.63;;;23.02;82.45
61026;BME280;46911;32.650;-16.902;2023-10-19T05:39:42;100821.78;;;23.01;82.88
61026;BME280;46911;32.650;-16.902;2023-10-19T05:41:43;100817.28;;;23.08;82.49
61026;BME280;46911;32.650;-16.902;2023-10-19T05:43:50;100818.78;;;23.11;82.74
61026;BME280;46911;32.650;-16.902;2023-10-19T05:45:55;100801.72;;;23.02;83.34
61026;BME280;46911;32.650;-16.902;2023-10-19T05:47:57;100815.59;;;23.07;84.07
61026;BME280;46911;32.650;-16.902;2023-10-19T05:49:58;100802.06;;;22.99;84.67
61026;BME280;46911;32.650;-16.902;2023-10-19T05:52:02;100803.47;;;22.95;85.24
61026;BME280;46911;32.650;-16.902;2023-10-19T05:54:04;100795.69;;;22.92;86.13
61026;BME280;46911;32.650;-16.902;2023-10-19T05:56:05;100810.59;;;22.96;86.54
61026;BME280;46911;32.650;-16.902;2023-10-19T05:58:07;100805.59;;;22.85;87.83
61026;BME280;46911;32.650;-16.902;2023-10-19T06:00:10;100791.75;;;22.71;88.50
61026;BME280;46911;32.650;-16.902;2023-10-19T06:02:21;100793.16;;;22.67;89.54
61026;BME280;46911;32.650;-16.902;2023-10-19T06:04:22;100817.09;;;22.72;89.40
61026;BME280;46911;32.650;-16.902;2023-10-19T06:06:23;100803.13;;;22.75;88.92
61026;BME280;46911;32.650;-16.902;2023-10-19T06:08:27;100802.09;;;22.76;88.71
61026;BME280;46911;32.650;-16.902;2023-10-19T06:10:29;100806.72;;;22.76;88.48
61026;BME280;46911;32.650;-16.902;2023-10-19T06:12:33;100806.97;;;22.81;88.18
61026;BME280;46911;32.650;-16.902;2023-10-19T06:14:35;100776.84;;;22.67;88.17
61026;BME280;46911;32.650;-16.902;2023-10-19T06:16:39;100800.53;;;22.82;88.73
61026;BME280;46911;32.650;-16.902;2023-10-19T06:18:43;100795.47;;;22.79;88.56
61026;BME280;46911;32.650;-16.902;2023-10-19T06:20:44;100809.34;;;22.84;88.69
61026;BME280;46911;32.650;-16.902;2023-10-19T06:22:48;100809.25;;;22.77;89.16
61026;BME280;46911;32.650;-16.902;2023-10-19T06:24:53;100815.91;;;22.74;89.71
61026;BME280;46911;32.650;-16.902;2023-10-19T06:26:54;100810.34;;;22.68;90.73
61026;BME280;46911;32.650;-16.902;2023-10-19T06:28:55;100809.47;;;22.67;91.21
61026;BME280;46911;32.650;-16.902;2023-10-19T06:30:59;100802.25;;;22.60;92.46
61026;BME280;46911;32.650;-16.902;2023-10-19T06:33:01;100791.25;;;22.53;93.05
61026;BME280;46911;32.650;-16.902;2023-10-19T06:35:04;100806.63;;;22.61;93.12
61026;BME280;46911;32.650;-16.902;2023-10-19T06:37:09;100790.75;;;22.49;92.85
61026;BME280;46911;32.650;-16.902;2023-10-19T06:39:14;100789.19;;;22.55;93.21
61026;BME280;46911;32.650;-16.902;2023-10-19T06:41:15;100814.38;;;22.72;93.67
61026;BME280;46911;32.650;-16.902;2023-10-19T06:43:19;100791.00;;;22.63;94.18
61026;BME280;46911;32.650;-16.902;2023-10-19T06:45:27;100796.44;;;22.63;94.67
61026;BME280;46911;32.650;-16.902;2023-10-19T06:47:32;100782.50;;;22.43;95.70
61026;BME280;46911;32.650;-16.902;2023-10-19T06:49:39;100806.06;;;22.50;97.01
61026;BME280;46911;32.650;-16.902;2023-10-19T06:51:40;100810.16;;;22.46;97.98
61026;BME280;46911;32.650;-16.902;2023-10-19T06:53:44;100810.88;;;22.40;98.49
61026;BME280;46911;32.650;-16.902;2023-10-19T06:55:46;100800.19;;;22.38;98.97
61026;BME280;46911;32.650;-16.902;2023-10-19T06:57:53;100808.28;;;22.47;98.52
61026;BME280;46911;32.650;-16.902;2023-10-19T06:59:54;100817.44;;;22.46;99.01
61026;BME280;46911;32.650;-16.902;2023-10-19T07:01:55;100815.41;;;22.48;98.76
61026;BME280;46911;32.650;-16.902;2023-10-19T07:03:56;100808.59;;;22.52;98.42
61026;BME280;46911;32.650;-16.902;2023-10-19T07:05:57;100814.44;;;22.64;97.38
61026;BME280;46911;32.650;-16.902;2023-10-19T07:08:02;100812.88;;;22.69;96.69
61026;BME280;46911;32.650;-16.902;2023-10-19T07:10:04;100808.94;;;22.72;96.40
61026;BME280;46911;32.650;-16.902;2023-10-19T07:12:06;100811.09;;;22.77;95.54
61026;BME280;46911;32.650;-16.902;2023-10-19T07:14:08;100804.44;;;22.79;95.28
61026;BME280;46911;32.650;-16.902;2023-10-19T07:16:13;100809.66;;;22.89;95.29
61026;BME280;46911;32.650;-16.902;2023-10-19T07:18:19;100809.59;;;22.97;95.40
61026;BME280;46911;32.650;-16.902;2023-10-19T07:20:23;100830.59;;;23.03;95.50
61026;BME280;46911;32.650;-16.902;2023-10-19T07:22:30;100821.22;;;23.06;96.04
61026;BME280;46911;32.650;-16.902;2023-10-19T07:24:31;100828.94;;;23.02;96.90
61026;BME280;46911;32.650;-16.902;2023-10-19T07:26:37;100816.78;;;22.90;99.38
61026;BME280;46911;32.650;-16.902;2023-10-19T07:28:52;100823.03;;;22.76;100.00
61026;BME280;46911;32.650;-16.902;2023-10-19T07:30:53;100831.72;;;22.71;100.00
61026;BME280;46911;32.650;-16.902;2023-10-19T07:32:56;100837.34;;;22.69;100.00
61026;BME280;46911;32.650;-16.902;2023-10-19T07:35:01;100831.72;;;22.71;100.00
61026;BME280;46911;32.650;-16.902;2023-10-19T07:37:07;100825.06;;;22.73;100.00
61026;BME280;46911;32.650;-16.902;2023-10-19T07:39:14;100831.00;;;22.77;100.00
61026;BME280;46911;32.650;-16.902;2023-10-19T07:41:22;100831.22;;;22.90;100.00
61026;BME280;46911;32.650;-16.902;2023-10-19T07:43:23;100832.19;;;22.98;100.00
61026;BME280;46911;32.650;-16.902;2023-10-19T07:45:25;100820.09;;;23.00;100.00
61026;BME280;46911;32.650;-16.902;2023-10-19T07:47:26;100827.16;;;23.10;99.97
61026;BME280;46911;32.650;-16.902;2023-10-19T07:49:30;100821.41;;;23.04;100.00
61026;BME280;46911;32.650;-16.902;2023-10-19T07:51:33;100825.44;;;23.08;100.00
61026;BME280;46911;32.650;-16.902;2023-10-19T07:53:34;100824.63;;;23.08;100.00
61026;BME280;46911;32.650;-16.902;2023-10-19T07:55:36;100831.22;;;23.14;100.00
61026;BME280;46911;32.650;-16.902;2023-10-19T07:57:44;100821.16;;;23.14;99.86
61026;BME280;46911;32.650;-16.902;2023-10-19T07:59:48;100829.44;;;23.21;100.00
61026;BME280;46911;32.650;-16.902;2023-10-19T08:01:49;100834.53;;;23.24;99.13
61026;BME280;46911;32.650;-16.902;2023-10-19T08:03:50;100844.84;;;23.29;99.06
61026;BME280;46911;32.650;-16.902;2023-10-19T08:05:54;100832.75;;;23.31;98.62
61026;BME280;46911;32.650;-16.902;2023-10-19T08:07:55;100840.47;;;23.43;98.64
61026;BME280;46911;32.650;-16.902;2023-10-19T08:10:01;100829.09;;;23.39;97.33
61026;BME280;46911;32.650;-16.902;2023-10-19T08:12:03;100843.28;;;23.49;97.50
61026;BME280;46911;32.650;-16.902;2023-10-19T08:14:08;100831.84;;;23.54;97.66
61026;BME280;46911;32.650;-16.902;2023-10-19T08:16:09;100835.22;;;23.71;96.91
61026;BME280;46911;32.650;-16.902;2023-10-19T08:18:17;100832.59;;;23.78;95.89
61026;BME280;46911;32.650;-16.902;2023-10-19T08:20:21;100848.84;;;24.01;95.63
61026;BME280;46911;32.650;-16.902;2023-10-19T08:22:32;100842.91;;;24.12;94.50
61026;BME280;46911;32.650;-16.902;2023-10-19T08:24:33;100856.81;;;24.17;93.76
61026;BME280;46911;32.650;-16.902;2023-10-19T08:26:36;100849.78;;;24.08;94.61
61026;BME280;46911;32.650;-16.902;2023-10-19T08:28:42;100841.34;;;24.03;94.00
61026;BME280;46911;32.650;-16.902;2023-10-19T08:30:43;100846.19;;;24.07;92.77
61026;BME280;46911;32.650;-16.902;2023-10-19T08:32:45;100843.00;;;24.19;93.25
61026;BME280;46911;32.650;-16.902;2023-10-19T08:34:49;100844.78;;;24.12;90.77
61026;BME280;46911;32.650;-16.902;2023-10-19T08:36:50;100847.78;;;24.17;90.52
61026;BME280;46911;32.650;-16.902;2023-10-19T08:38:54;100844.31;;;24.23;89.66
61026;BME280;46911;32.650;-16.902;2023-10-19T08:40:57;100840.34;;;24.26;89.48
61026;BME280;46911;32.650;-16.902;2023-10-19T08:42:58;100847.78;;;24.17;88.01
61026;BME280;46911;32.650;-16.902;2023-10-19T08:45:05;100835.47;;;24.21;88.27
61026;BME280;46911;32.650;-16.902;2023-10-19T08:47:08;100846.63;;;24.26;89.21
61026;BME280;46911;32.650;-16.902;2023-10-19T08:49:12;100845.53;;;24.20;90.20
61026;BME280;46911;32.650;-16.902;2023-10-19T08:51:14;100857.53;;;24.26;90.71
61026;BME280;46911;32.650;-16.902;2023-10-19T08:53:18;100851.81;;;24.21;91.07
61026;BME280;46911;32.650;-16.902;2023-10-19T08:55:20;100870.09;;;23.90;93.15
61026;BME280;46911;32.650;-16.902;2023-10-19T08:57:22;100846.59;;;23.74;94.70
61026;BME280;46911;32.650;-16.902;2023-10-19T08:59:23;100860.66;;;23.78;95.03
61026;BME280;46911;32.650;-16.902;2023-10-19T09:01:26;100859.72;;;23.86;95.07
61026;BME280;46911;32.650;-16.902;2023-10-19T09:03:31;100860.50;;;23.95;94.00
61026;BME280;46911;32.650;-16.902;2023-10-19T09:05:38;100871.69;;;24.00;94.35
61026;BME280;46911;32.650;-16.902;2023-10-19T09:07:40;100866.56;;;24.12;91.23
61026;BME280;46911;32.650;-16.902;2023-10-19T09:09:45;100866.66;;;24.33;89.55
61026;BME280;46911;32.650;-16.902;2023-10-19T09:11:48;100868.81;;;24.60;88.39
61026;BME280;46911;32.650;-16.902;2023-10-19T09:13:52;100866.00;;;24.68;87.72
61026;BME280;46911;32.650;-16.902;2023-10-19T09:16:04;100875.69;;;24.92;85.33
61026;BME280;46911;32.650;-16.902;2023-10-19T09:18:22;100876.22;;;25.31;82.92
61026;BME280;46911;32.650;-16.902;2023-10-19T09:20:23;100876.13;;;25.74;79.18
61026;BME280;46911;32.650;-16.902;2023-10-19T09:22:39;100881.94;;;26.41;77.99
61026;BME280;46911;32.650;-16.902;2023-10-19T09:24:48;100878.28;;;26.76;74.60
61026;BME280;46911;32.650;-16.902;2023-10-19T09:26:53;100897.19;;;26.70;74.36
61026;BME280;46911;32.650;-16.902;2023-10-19T09:28:54;100880.69;;;26.44;76.06
61026;BME280;46911;32.650;-16.902;2023-10-19T09:30:55;100890.13;;;26.34;77.03
61026;BME280;46911;32.650;-16.902;2023-10-19T09:32:57;100893.19;;;26.11;78.36
61026;BME280;46911;32.650;-16.902;2023-10-19T09:34:59;100889.44;;;25.84;79.82
61026;BME280;46911;32.650;-16.902;2023-10-19T09:37:05;100901.06;;;25.93;79.70
61026;BME280;46911;32.650;-16.902;2023-10-19T09:39:09;100886.91;;;25.82;80.19
61026;BME280;46911;32.650;-16.902;2023-10-19T09:41:15;100888.44;;;25.92;80.94
61026;BME280;46911;32.650;-16.902;2023-10-19T09:43:24;100873.38;;;25.67;82.12
61026;BME280;46911;32.650;-16.902;2023-10-19T09:45:32;100889.56;;;25.69;83.09
61026;BME280;46911;32.650;-16.902;2023-10-19T09:47:38;100882.16;;;25.63;84.40
61026;BME280;46911;32.650;-16.902;2023-10-19T09:49:42;100882.28;;;25.26;86.80
61026;BME280;46911;32.650;-16.902;2023-10-19T09:51:51;100879.25;;;24.71;86.48
61026;BME280;46911;32.650;-16.902;2023-10-19T09:54:05;100906.66;;;24.63;88.73
61026;BME280;46911;32.650;-16.902;2023-10-19T09:56:22;100891.97;;;24.64;90.34
61026;BME280;46911;32.650;-16.902;2023-10-19T09:58:28;100894.28;;;24.82;90.15
61026;BME280;46911;32.650;-16.902;2023-10-19T10:00:35;100890.34;;;25.13;88.79
61026;BME280;46911;32.650;-16.902;2023-10-19T10:02:36;100897.09;;;25.38;87.78
61026;BME280;46911;32.650;-16.902;2023-10-19T10:04:40;100902.56;;;25.38;87.68
61026;BME280;46911;32.650;-16.902;2023-10-19T10:07:02;100897.09;;;25.38;87.96
61026;BME280;46911;32.650;-16.902;2023-10-19T10:09:06;100898.66;;;25.48;87.81
61026;BME280;46911;32.650;-16.902;2023-10-19T10:11:23;100900.50;;;25.40;87.03
61026;BME280;46911;32.650;-16.902;2023-10-19T10:15:38;100891.28;;;24.98;89.66
61026;BME280;46911;32.650;-16.902;2023-10-19T10:17:41;100900.28;;;24.77;89.86
61026;BME280;46911;32.650;-16.902;2023-10-19T10:19:42;100898.69;;;25.04;90.47
61026;BME280;46911;32.650;-16.902;2023-10-19T10:22:04;100883.34;;;25.82;86.60
61026;BME280;46911;32.650;-16.902;2023-10-19T10:24:14;100898.06;;;26.91;79.19
61026;BME280;46911;32.650;-16.902;2023-10-19T10:26:17;100904.31;;;28.19;74.35
61026;BME280;46911;32.650;-16.902;2023-10-19T10:28:21;100910.06;;;29.27;66.46
61026;BME280;46911;32.650;-16.902;2023-10-19T10:30:24;100915.19;;;29.92;61.86
61026;BME280;46911;32.650;-16.902;2023-10-19T10:32:46;100907.22;;;30.21;60.78
61026;BME280;46911;32.650;-16.902;2023-10-19T10:34:57;100906.41;;;30.69;58.08
61026;BME280;46911;32.650;-16.902;2023-10-19T10:37:05;100898.66;;;30.78;56.51
61026;BME280;46911;32.650;-16.902;2023-10-19T10:39:08;100911.09;;;30.50;56.23